Hondarribia Gipuzkoa

latitud = 43° 21' 38''N | longitud = 001° 47' 14''W
4 metros sobre el nivel del mar | datos mensuales

Fecha, hora, temperatura, viento dirección y velocidad, humedad y presión.

  • 16-08-2018 02:00:00 | 20.60°C | Sur |9.00 km/h | 89.00% | 1015.90 hPa
  • 16-08-2018 01:00:00 | 20.90°C | Sudoeste |10.00 km/h | 89.00% | 1016.20 hPa
  • 16-08-2018 00:00:00 | 21.10°C | Sudoeste |11.00 km/h | 88.00% | 1016.40 hPa
  • 15-08-2018 23:00:00 | 21.70°C | Sudoeste |7.00 km/h | 85.00% | 1016.50 hPa
  • 15-08-2018 22:00:00 | 22.80°C | Oeste |3.00 km/h | 81.00% | 1016.70 hPa
  • 15-08-2018 21:00:00 | 23.60°C | Norte |8.00 km/h | 77.00% | 1016.30 hPa
  • 15-08-2018 20:00:00 | 24.50°C | Norte |11.00 km/h | 73.00% | 1016.50 hPa
  • 15-08-2018 19:00:00 | 24.80°C | Nordeste |12.00 km/h | 71.00% | 1016.80 hPa
  • 15-08-2018 18:00:00 | 25.20°C | Norte |16.00 km/h | 70.00% | 1017.10 hPa
  • 15-08-2018 17:00:00 | 25.40°C | Norte |15.00 km/h | 68.00% | 1017.60 hPa
  • 15-08-2018 16:00:00 | 25.50°C | Norte |17.00 km/h | 68.00% | 1017.90 hPa
  • 15-08-2018 15:00:00 | 25.70°C | Norte |16.00 km/h | 65.00% | 1018.30 hPa
  • 15-08-2018 14:00:00 | 25.00°C | Norte |15.00 km/h | 67.00% | 1019.00 hPa
  • 15-08-2018 13:00:00 | 24.30°C | Norte |15.00 km/h | 67.00% | 1019.40 hPa
  • 15-08-2018 12:00:00 | 23.50°C | Norte |12.00 km/h | 67.00% | 1020.00 hPa
  • 15-08-2018 11:00:00 | 22.70°C | Norte |11.00 km/h | 69.00% | 1020.30 hPa
  • 15-08-2018 10:00:00 | 21.90°C | Nordeste |7.00 km/h | 73.00% | 1020.30 hPa
  • 15-08-2018 09:00:00 | 19.10°C | Sur |3.00 km/h | 87.00% | 1020.50 hPa
  • 15-08-2018 08:00:00 | 18.00°C | Calma |0.00 km/h | 91.00% | 1020.60 hPa
  • 15-08-2018 07:00:00 | 17.70°C | Sudoeste |3.00 km/h | 93.00% | 1020.70 hPa
  • 15-08-2018 06:00:00 | 18.30°C | Sur |4.00 km/h | 92.00% | 1020.80 hPa
  • 15-08-2018 05:00:00 | 18.80°C | Sudoeste |4.00 km/h | 91.00% | 1021.20 hPa
  • 15-08-2018 04:00:00 | 19.20°C | Calma |0.00 km/h | 91.00% | 1021.50 hPa
  • 15-08-2018 03:00:00 | 19.40°C | Sur |4.00 km/h | 88.00% | 1021.80 hPa